tititudorancea.com
Station Historical Data
Daily Summary for May 5, 2018 Units:  Metric    English   Both
« Previous Day
Next Day »
Daily Weekly Monthly Yearly Custom
  High: Low: Average:
Temperature: -17.8 °C 8.8 °C 13.3 °C
Dew Point: -17.8 °C 7.2 °C 9.4 °C
Humidity: Humidity % 59 % 78 %
Wind Speed: 0 km/h 0 km/h 6.8 km/h
Wind Gust: 0 km/h - -
Wind:- - NW
Pressure: 0 hPa 1021.6 hPa -
Precipitation: 0 mm    
Historical Graphs
 
 
Ararat weather Find more about Weather in Ararat, AU


 



 


Tabular Data for May 5, 2018
Time Temperature Dew Point Pressure Wind Wind Speed Wind Gust Humidity Rainfall Rate (Hourly)
-17.8 °C -17.8 °C 0 hPa Calm     Humidity % 0 mm
00:03 11.6 °C 7.7 °C 1021.6 hPa North 6.8 km/h 11.3 km/h 77 % 0 mm
00:08 11.6 °C 7.7 °C 1021.6 hPa NNW 4.8 km/h 7.4 km/h 77 % 0 mm
00:13 11.6 °C 7.8 °C 1021.9 hPa NNW 4.7 km/h 7.4 km/h 78 % 0 mm
00:18 11.6 °C 7.8 °C 1021.9 hPa North 6.1 km/h 7.4 km/h 78 % 0 mm
00:23 11.7 °C 7.9 °C 1021.9 hPa North 6.9 km/h 13 km/h 78 % 0 mm
00:28 11.7 °C 8 °C 1021.9 hPa North 9 km/h 11.1 km/h 78 % 0 mm
00:33 11.8 °C 8.1 °C 1021.9 hPa WNW 9.7 km/h 13 km/h 78 % 0 mm
00:38 11.9 °C 8.2 °C 1021.9 hPa WNW 6.9 km/h 11.1 km/h 78 % 0 mm
00:43 11.9 °C 8.2 °C 1022.2 hPa WNW 8 km/h 11.1 km/h 78 % 0 mm
00:48 11.9 °C 8.2 °C 1022.2 hPa WNW 6.8 km/h 9.3 km/h 78 % 0 mm
00:53 11.9 °C 8.4 °C 1022.2 hPa WNW 9.7 km/h 14.8 km/h 79 % 0 mm
00:59 12 °C 8.4 °C 1022.2 hPa WNW 8.5 km/h 13 km/h 79 % 0 mm
01:04 12.1 °C 8.4 °C 1022.2 hPa WNW 8.9 km/h 11.1 km/h 78 % 0 mm
01:09 12.2 °C 8.4 °C 1022.2 hPa WNW 10.1 km/h 13 km/h 78 % 0 mm
01:14 12.2 °C 8.5 °C 1022.2 hPa WNW 5.1 km/h 9.3 km/h 78 % 0 mm
01:19 12.2 °C 8.5 °C 1022.2 hPa North 9.3 km/h 13 km/h 78 % 0 mm
01:24 12.2 °C 8.5 °C 1022.2 hPa WNW 8 km/h 14.8 km/h 78 % 0 mm
01:29 12.2 °C 8.5 °C 1022.2 hPa WNW 10 km/h 14.8 km/h 78 % 0 mm
01:34 12.2 °C 8.5 °C 1022.2 hPa WNW 7.7 km/h 9.3 km/h 78 % 0 mm
01:39 12.3 °C 8.6 °C 1022.2 hPa WNW 3.4 km/h 8 km/h 78 % 0 mm
01:44 12.3 °C 8.6 °C 1022.2 hPa North 6.6 km/h 7.4 km/h 78 % 0 mm
01:49 12.3 °C 8.6 °C 1022.2 hPa NW 7.7 km/h 11.3 km/h 78 % 0 mm
01:54 12.4 °C 8.7 °C 1022.6 hPa North 10.6 km/h 14.8 km/h 78 % 0 mm
01:59 12.4 °C 8.7 °C 1022.6 hPa NW 4 km/h 7.4 km/h 78 % 0 mm
02:04 12.4 °C 8.7 °C 1022.6 hPa North 3.7 km/h 8 km/h 78 % 0 mm
02:09 12.4 °C 8.5 °C 1022.6 hPa North 6.6 km/h 8 km/h 77 % 0 mm
02:14 12.4 °C 8.7 °C 1022.6 hPa NW 5 km/h 6.4 km/h 78 % 0 mm
02:19 12.3 °C 8.6 °C 1022.6 hPa North 4.3 km/h 5.6 km/h 78 % 0 mm
02:24 12.3 °C 8.6 °C 1022.6 hPa NW 2.4 km/h 5.6 km/h 78 % 0 mm
02:29 12.3 °C 8.6 °C 1022.6 hPa NW 3.7 km/h 5.6 km/h 78 % 0 mm
02:34 12.1 °C 8.6 °C 1022.6 hPa North 6 km/h 11.1 km/h 79 % 0 mm
02:39 12 °C 8.7 °C 1022.6 hPa North 4.8 km/h 7.4 km/h 80 % 0 mm
02:44 11.9 °C 8.7 °C 1022.9 hPa North 3.2 km/h 7.4 km/h 81 % 0 mm
02:49 11.7 °C 8.7 °C 1022.9 hPa NW 5.5 km/h 7.4 km/h 82 % 0 mm
02:54 11.7 °C 8.7 °C 1022.9 hPa NW 5.3 km/h 11.1 km/h 82 % 0 mm
02:59 11.6 °C 8.8 °C 1022.9 hPa NW 4 km/h 5.6 km/h 83 % 0 mm
03:04 11.6 °C 8.8 °C 1022.9 hPa North 7.9 km/h 11.1 km/h 83 % 0 mm
03:09 11.6 °C 8.8 °C 1022.9 hPa NNW 4.7 km/h 5.6 km/h 83 % 0 mm
03:14 11.5 °C 8.9 °C 1022.9 hPa North 6.4 km/h 9.7 km/h 84 % 0 mm
03:19 11.5 °C 8.9 °C 1022.9 hPa North 5.1 km/h 7.4 km/h 84 % 0 mm
03:24 11.5 °C 8.9 °C 1022.9 hPa NNW 5.8 km/h 9.3 km/h 84 % 0 mm
03:29 11.5 °C 8.9 °C 1022.9 hPa North 6.4 km/h 11.1 km/h 84 % 0 mm
03:34 11.4 °C 8.8 °C 1022.9 hPa NNW 5.5 km/h 9.3 km/h 84 % 0 mm
03:39 11.4 °C 8.9 °C 1022.9 hPa North 9.7 km/h 16.7 km/h 85 % 0 mm
03:44 11.3 °C 8.9 °C 1022.9 hPa NNE 10.6 km/h 17.7 km/h 85 % 0 mm
03:49 11.2 °C 8.9 °C 1023.2 hPa North 6.9 km/h 14.8 km/h 86 % 0 mm
03:54 11.1 °C 9.1 °C 1023.2 hPa North 9.3 km/h 11.1 km/h 87 % 0 mm
03:59 11 °C 8.9 °C 1023.2 hPa North 6.8 km/h 11.1 km/h 87 % 0 mm
04:04 10.9 °C 9 °C 1023.2 hPa North 2.9 km/h 6.4 km/h 88 % 0 mm
04:09 10.7 °C 9 °C 1023.6 hPa North 6 km/h 7.4 km/h 89 % 0 mm
04:14 10.7 °C 8.9 °C 1023.6 hPa North 6.1 km/h 8 km/h 89 % 0 mm
04:19 10.6 °C 9.1 °C 1023.6 hPa NNW 8.2 km/h 11.3 km/h 90 % 0 mm
04:24 10.5 °C 8.9 °C 1023.6 hPa NNW 10 km/h 13 km/h 90 % 0 mm
04:29 10.5 °C 8.9 °C 1023.6 hPa NNW 7.1 km/h 9.3 km/h 90 % 0 mm
04:34 10.4 °C 9.1 °C 1023.6 hPa North 8.2 km/h 14.8 km/h 91 % 0 mm
04:39 10.4 °C 9.1 °C 1023.6 hPa NNW 5.3 km/h 7.4 km/h 91 % 0 mm
04:44 10.4 °C 9.1 °C 1023.6 hPa NNW 5.1 km/h 7.4 km/h 91 % 0 mm
04:49 10.4 °C 9.1 °C 1023.6 hPa NNW 2.6 km/h 5.6 km/h 91 % 0 mm
04:54 10.4 °C 9.1 °C 1023.9 hPa NNW 3.9 km/h 5.6 km/h 91 % 0 mm
05:04 10.4 °C 9.1 °C 1023.9 hPa NNW 4.2 km/h 5.6 km/h 91 % 0 mm
05:09 10.4 °C 9.1 °C 1023.9 hPa North 2.9 km/h 5.6 km/h 91 % 0 mm
05:14 10.3 °C 8.9 °C 1023.9 hPa North 3.1 km/h 5.6 km/h 91 % 0 mm
05:19 10.3 °C 8.9 °C 1023.9 hPa North 3.9 km/h 8 km/h 91 % 0 mm
05:24 10.3 °C 8.9 °C 1024.3 hPa NNW 6 km/h 9.7 km/h 91 % 0 mm
05:29 10.3 °C 9.1 °C 1024.3 hPa NNW 6.1 km/h 9.3 km/h 92 % 0 mm
05:34 10.3 °C 9.1 °C 1024.3 hPa North 8.9 km/h 11.3 km/h 92 % 0 mm
05:39 10.4 °C 9.2 °C 1024.3 hPa NNW 7.9 km/h 9.3 km/h 92 % 0 mm
05:44 10.4 °C 9.2 °C 1024.3 hPa North 7.9 km/h 11.1 km/h 92 % 0 mm
05:49 10.3 °C 9.1 °C 1024.3 hPa North 8 km/h 13 km/h 92 % 0 mm
05:54 10.3 °C 9.1 °C 1024.3 hPa North 5.3 km/h 9.3 km/h 92 % 0 mm
05:59 10.3 °C 9.1 °C 1024.3 hPa North 6 km/h 9.7 km/h 92 % 0 mm
06:04 10.2 °C 9 °C 1024.6 hPa North 4.7 km/h 9.7 km/h 92 % 0 mm
06:09 10.2 °C 9 °C 1024.6 hPa North 4.8 km/h 9.3 km/h 92 % 0 mm
06:14 10.2 °C 9 °C 1024.6 hPa North 4.8 km/h 5.6 km/h 92 % 0 mm
06:19 10.2 °C 9 °C 1024.6 hPa North 4.3 km/h 5.6 km/h 92 % 0 mm
06:24 10.2 °C 9 °C 1024.6 hPa North 1.8 km/h 5.6 km/h 92 % 0 mm
06:29 10.2 °C 9 °C 1024.6 hPa North 4.2 km/h 5.6 km/h 92 % 0 mm
06:34 10.2 °C 9 °C 1024.6 hPa North 1.9 km/h 5.6 km/h 92 % 0 mm
06:39 10.3 °C 9.2 °C 1024.6 hPa North 3.4 km/h 5.6 km/h 93 % 0 mm
06:44 10.3 °C 9.2 °C 1024.9 hPa North 5.8 km/h 9.3 km/h 93 % 0 mm
06:49 10.3 °C 9.2 °C 1024.9 hPa North 6.1 km/h 9.3 km/h 93 % 0 mm
06:54 10.2 °C 9.2 °C 1024.9 hPa North 4 km/h 5.6 km/h 93 % 0 mm
06:59 10.2 °C 9.1 °C 1024.9 hPa North 4.7 km/h 6.4 km/h 93 % 0 mm
07:04 10.1 °C 9.1 °C 1025.3 hPa North 3.5 km/h 5.6 km/h 93 % 0 mm
07:09 10.1 °C 9 °C 1025.3 hPa North 2.7 km/h 5.6 km/h 93 % 0 mm
07:14 9.9 °C 8.9 °C 1025.3 hPa North 3.1 km/h 5.6 km/h 93 % 0 mm
07:19 9.9 °C 8.9 °C 1025.3 hPa North 5.1 km/h 7.4 km/h 93 % 0 mm
07:24 9.9 °C 8.9 °C 1025.3 hPa NNW 7.7 km/h 14.5 km/h 93 % 0 mm
07:29 10 °C 8.9 °C 1025.3 hPa NNW 4.7 km/h 9.3 km/h 93 % 0 mm
07:34 10.1 °C 9 °C 1025.6 hPa NNW 3.5 km/h 5.6 km/h 93 % 0 mm
07:39 10 °C 8.9 °C 1025.6 hPa NNW 3.5 km/h 8 km/h 93 % 0 mm
07:40 10 °C 8.9 °C 1025.6 hPa North 6.4 km/h 9.7 km/h 93 % 0 mm
07:45 10 °C 8.9 °C 1025.6 hPa NNW 4.7 km/h 7.4 km/h 93 % 0 mm
07:50 10.1 °C 9 °C 1025.6 hPa NNW 7.2 km/h 11.1 km/h 93 % 0 mm
07:55 10.2 °C 9.2 °C 1025.6 hPa NNW 6 km/h 7.4 km/h 94 % 0 mm
08:00 10.2 °C 9.2 °C 1025.6 hPa NNW 7.1 km/h 11.1 km/h 93 % 0 mm
08:05 10.3 °C 9.4 °C 1025.6 hPa NNW 9.2 km/h 9.3 km/h 94 % 0 mm
08:10 10.4 °C 9.5 °C 1025.6 hPa NNW 8.2 km/h 12.9 km/h 94 % 0 mm
08:15 10.6 °C 9.5 °C 1026 hPa NNW 5.1 km/h 9.3 km/h 93 % 0 mm
08:20 10.7 °C 9.8 °C 1026 hPa North 5.1 km/h 7.4 km/h 94 % 0 mm
08:25 11 °C 10.1 °C 1026 hPa NNW 5.5 km/h 5.6 km/h 94 % 0 mm
08:30 11.2 °C 10.1 °C 1026 hPa NNW 7.7 km/h 11.1 km/h 93 % 0 mm
08:35 11.3 °C 10.2 °C 1026 hPa NNW 4.3 km/h 7.4 km/h 93 % 0 mm
08:40 11.5 °C 10.2 °C 1026 hPa NNW 6 km/h 13 km/h 92 % 0 mm
08:45 11.7 °C 10.4 °C 1026.3 hPa North 5.3 km/h 7.4 km/h 92 % 0 mm
08:50 11.9 °C 10.5 °C 1026.3 hPa North 7.2 km/h 11.1 km/h 91 % 0 mm
08:55 12.2 °C 10.4 °C 1026.3 hPa North 11.1 km/h 14.8 km/h 89 % 0 mm
09:00 12.3 °C 10.5 °C 1026.3 hPa North 2.1 km/h 5.6 km/h 89 % 0 mm
09:05 12.6 °C 10.6 °C 1026.3 hPa North 7.7 km/h 9.7 km/h 88 % 0 mm
09:10 12.7 °C 10.4 °C 1026.3 hPa North 6.9 km/h 13 km/h 86 % 0 mm
09:15 12.8 °C 10.5 °C 1026.3 hPa North 4.8 km/h 7.4 km/h 86 % 0 mm
09:20 12.9 °C 10.5 °C 1026.6 hPa North 5.5 km/h 9.7 km/h 85 % 0 mm
09:25 13.2 °C 10.5 °C 1026.6 hPa North 8.2 km/h 11.1 km/h 84 % 0 mm
09:30 13.3 °C 10.4 °C 1026.3 hPa North 10.3 km/h 13 km/h 83 % 0 mm
09:35 13.4 °C 10.6 °C 1026.3 hPa North 6.8 km/h 9.3 km/h 83 % 0 mm
09:40 13.7 °C 10.7 °C 1026.3 hPa North 6.1 km/h 7.4 km/h 82 % 0 mm
09:45 13.8 °C 10.6 °C 1026.3 hPa North 7.4 km/h 9.3 km/h 81 % 0 mm
09:50 13.9 °C 10.7 °C 1026.6 hPa North 6.9 km/h 13 km/h 81 % 0 mm
09:55 13.9 °C 10.5 °C 1026.6 hPa NNW 12.4 km/h 14.8 km/h 80 % 0 mm
10:00 13.9 °C 10.7 °C 1026.6 hPa North 7.4 km/h 11.1 km/h 81 % 0 mm
10:05 13.9 °C 10.9 °C 1026.6 hPa NNW 8.4 km/h 13 km/h 82 % 0 mm
10:10 14.1 °C 10.9 °C 1026.6 hPa North 8 km/h 14.8 km/h 81 % 0 mm
10:15 13.9 °C 10.5 °C 1027 hPa NW 12.6 km/h 17.7 km/h 80 % 0 mm
10:20 13.8 °C 10.8 °C 1027 hPa NNW 9.7 km/h 14.8 km/h 82 % 0 mm
10:25 13.9 °C 10.9 °C 1027 hPa North 7.9 km/h 14.8 km/h 82 % 0 mm
10:30 13.9 °C 10.9 °C 1027 hPa North 9.2 km/h 14.5 km/h 82 % 0 mm
10:35 14.1 °C 11.1 °C 1027 hPa North 6.4 km/h 14.8 km/h 82 % 0 mm
10:40 14.3 °C 11.2 °C 1027 hPa North 5.6 km/h 8 km/h 82 % 0 mm
10:45 14.3 °C 11.1 °C 1027.3 hPa North 6.3 km/h 9.3 km/h 81 % 0 mm
10:50 14.3 °C 11.1 °C 1027.3 hPa North 6.3 km/h 11.1 km/h 81 % 0 mm
10:55 14.3 °C 11.1 °C 1027.3 hPa North 9.3 km/h 13 km/h 81 % 0 mm
11:00 14.4 °C 11.2 °C 1027.3 hPa North 9.2 km/h 13 km/h 81 % 0 mm
11:05 14.5 °C 11.1 °C 1027.3 hPa North 9.3 km/h 13 km/h 80 % 0 mm
11:11 14.6 °C 11.2 °C 1027.3 hPa North 7.9 km/h 7.9 km/h 80 % 0 mm
11:16 14.7 °C 11.1 °C 1027.3 hPa North 6.3 km/h 7.4 km/h 79 % 0 mm
11:21 14.7 °C 11.1 °C 1027.3 hPa North 6 km/h 9.7 km/h 79 % 0 mm
11:26 14.9 °C 11.1 °C 1027.3 hPa North 6.3 km/h 7.4 km/h 78 % 0 mm
11:31 15.1 °C 11.2 °C 1027.3 hPa North 1.9 km/h 5.6 km/h 78 % 0 mm
11:36 15.7 °C 10.8 °C 1027.3 hPa WNW 12.9 km/h 20.4 km/h 73 % 0 mm
11:41 16.4 °C 11.2 °C 1027.3 hPa North 15 km/h 22.2 km/h 71 % 0 mm
11:46 16.7 °C 11 °C 1027.3 hPa WNW 11.9 km/h 16.7 km/h 69 % 0 mm
11:51 17.1 °C 11.1 °C 1027.3 hPa WNW 10.9 km/h 14.8 km/h 68 % 0 mm
11:56 17.1 °C 10.9 °C 1027.3 hPa West 17.5 km/h 20.4 km/h 67 % 0 mm
12:01 17.1 °C 11.2 °C 1027.3 hPa WNW 12.7 km/h 17.7 km/h 68 % 0 mm
12:06 16.9 °C 10.9 °C 1027.3 hPa North 14.8 km/h 20.4 km/h 68 % 0 mm
12:11 16.9 °C 10.8 °C 1027.3 hPa North 13.7 km/h 18.5 km/h 67 % 0 mm
12:16 16.9 °C 10.8 °C 1027.3 hPa WNW 12.2 km/h 16.7 km/h 67 % 0 mm
12:21 16.7 °C 10.6 °C 1027.3 hPa West 11.7 km/h 18.5 km/h 67 % 0 mm
12:26 16.7 °C 10.7 °C 1027.3 hPa West 17.9 km/h 22.2 km/h 68 % 0 mm
12:31 16.5 °C 10.6 °C 1027.3 hPa NW 15.4 km/h 20.4 km/h 68 % 0 mm
12:36 16.5 °C 10.6 °C 1027.3 hPa NW 12.6 km/h 16.7 km/h 68 % 0 mm
12:41 16.9 °C 10.7 °C 1027.3 hPa North 14 km/h 18.5 km/h 67 % 0 mm
12:46 16.6 °C 10.4 °C 1027 hPa NW 14.6 km/h 18.5 km/h 67 % 0 mm
12:51 16.7 °C 10.7 °C 1027 hPa WNW 12.2 km/h 16.7 km/h 68 % 0 mm
12:56 17.1 °C 10.9 °C 1027 hPa North 8 km/h 11.3 km/h 67 % 0 mm
13:01 17.3 °C 10.4 °C 1027 hPa WNW 14.6 km/h 22.2 km/h 64 % 0 mm
13:06 17.1 °C 10.2 °C 1027 hPa West 13.4 km/h 18.5 km/h 64 % 0 mm
13:11 17 °C 10.4 °C 1026.6 hPa West 10.3 km/h 14.8 km/h 65 % 0 mm
13:16 17.3 °C 10.4 °C 1027 hPa West 14.3 km/h 18.5 km/h 64 % 0 mm
13:21 17.5 °C 10.4 °C 1026.6 hPa WNW 15.1 km/h 27.8 km/h 63 % 0 mm
13:26 17.4 °C 10.3 °C 1026.6 hPa North 14.3 km/h 18.5 km/h 63 % 0 mm
13:31 17.4 °C 10.3 °C 1026.6 hPa WNW 15.9 km/h 18.5 km/h 63 % 0 mm
13:36 17.6 °C 10.2 °C 1026.6 hPa WSW 13.2 km/h 18.5 km/h 62 % 0 mm
13:41 17.6 °C 10.2 °C 1026.6 hPa West 14.3 km/h 18.5 km/h 62 % 0 mm
13:46 17.7 °C 10.6 °C 1026.6 hPa WSW 15.4 km/h 20.4 km/h 63 % 0 mm
13:51 17.3 °C 10 °C 1026.6 hPa WSW 15.1 km/h 22.2 km/h 62 % 0 mm
13:56 17.6 °C 9.9 °C 1026.6 hPa NW 18.7 km/h 20.9 km/h 61 % 0 mm
14:01 17.7 °C 10.1 °C 1026.6 hPa WNW 11.7 km/h 16.7 km/h 61 % 0 mm
14:06 17.4 °C 10.1 °C 1026.6 hPa North 14.5 km/h 18.5 km/h 62 % 0 mm
14:11 17.6 °C 9.9 °C 1026.3 hPa WNW 13.7 km/h 20.4 km/h 61 % 0 mm
14:16 17.9 °C 9.8 °C 1026.3 hPa NW 15.1 km/h 20.4 km/h 59 % 0 mm
14:21 17.8 °C 9.7 °C 1026.3 hPa West 9.5 km/h 16.7 km/h 59 % 0 mm
14:26 17.6 °C 9.7 °C 1026.3 hPa North 14.3 km/h 16.7 km/h 60 % 0 mm
14:31 17.8 °C 9.9 °C 1026.3 hPa WSW 8.2 km/h 16.7 km/h 60 % 0 mm
14:36 17.9 °C 9.8 °C 1026.3 hPa North 7.4 km/h 13 km/h 59 % 0 mm
14:41 17.8 °C 9.9 °C 1026.6 hPa North 11.7 km/h 14.8 km/h 60 % 0 mm
14:46 17.6 °C 9.7 °C 1026.6 hPa West 15.8 km/h 18.5 km/h 60 % 0 mm
14:51 17.5 °C 9.9 °C 1026.6 hPa West 10.8 km/h 14.8 km/h 61 % 0 mm
14:56 17.6 °C 10.2 °C 1026.6 hPa West 6.6 km/h 9.7 km/h 62 % 0 mm
15:01 17.7 °C 10.1 °C 1026.3 hPa WNW 13.5 km/h 18.5 km/h 61 % 0 mm
15:06 17.7 °C 9.6 °C 1026.3 hPa West 12.4 km/h 16.1 km/h 59 % 0 mm
15:11 17.7 °C 9.6 °C 1026.3 hPa West 9.7 km/h 16.7 km/h 59 % 0 mm
15:16 17.7 °C 9.6 °C 1026.6 hPa West 11.4 km/h 13 km/h 59 % 0 mm
15:21 17.5 °C 9.4 °C 1026.6 hPa West 12.6 km/h 18.5 km/h 59 % 0 mm
15:26 17.5 °C 9.7 °C 1026.6 hPa West 9 km/h 11.1 km/h 60 % 0 mm
15:31 17.4 °C 9.3 °C 1026.6 hPa West 14.6 km/h 18.5 km/h 59 % 0 mm
15:36 17.3 °C 9.5 °C 1026.6 hPa WNW 8.2 km/h 11.1 km/h 60 % 0 mm
15:41 17.4 °C 9.6 °C 1026.6 hPa WNW 9.2 km/h 13 km/h 60 % 0 mm
15:46 17.2 °C 9.6 °C 1026.6 hPa WNW 5.5 km/h 9.3 km/h 61 % 0 mm
15:51 17.1 °C 9.3 °C 1026.6 hPa WNW 10.9 km/h 16.1 km/h 60 % 0 mm
15:56 17.2 °C 9.6 °C 1026.6 hPa WNW 6 km/h 9.3 km/h 61 % 0 mm
16:01 17.7 °C 9.6 °C 1026.6 hPa WNW 11.7 km/h 14.8 km/h 59 % 0 mm
16:06 17.9 °C 9.8 °C 1026.6 hPa North 6.3 km/h 16.1 km/h 59 % 0 mm
16:11 17.7 °C 9.8 °C 1026.6 hPa WNW 8.7 km/h 13 km/h 60 % 0 mm
16:16 17.5 °C 9.9 °C 1026.6 hPa WNW 11.6 km/h 13 km/h 61 % 0 mm
16:21 17.4 °C 9.8 °C 1026.6 hPa WNW 7.6 km/h 11.1 km/h 61 % 0 mm
16:26 17.4 °C 10.1 °C 1027 hPa WNW 7.4 km/h 7.4 km/h 62 % 0 mm
16:28 17.4 °C 10.1 °C 1027 hPa WNW 8.2 km/h 9.3 km/h 62 % 0 mm
16:33 17.4 °C 10.1 °C 1027 hPa WNW 7.4 km/h 9.7 km/h 62 % 0 mm
16:38 17.4 °C 10.3 °C 1027 hPa WNW 5.8 km/h 7.4 km/h 63 % 0 mm
16:40 17.3 °C 10.4 °C 1027 hPa North 4.2 km/h 5.6 km/h 64 % 0 mm
16:45 17.2 °C 10.3 °C 1027 hPa NW 8.4 km/h 14.8 km/h 64 % 0 mm
16:50 17.2 °C 10.6 °C 1027 hPa NW 7.1 km/h 9.3 km/h 65 % 0 mm
16:55 17.1 °C 10.7 °C 1027 hPa North 4.3 km/h 9.3 km/h 66 % 0 mm
17:00 17 °C 10.8 °C 1027 hPa NW 4.3 km/h 5.6 km/h 67 % 0 mm
17:05 17 °C 10.6 °C 1027 hPa NW 6.8 km/h 9.3 km/h 66 % 0 mm
17:10 16.9 °C 10.5 °C 1027 hPa NW 7.2 km/h 11.1 km/h 66 % 0 mm
17:15 16.7 °C 10.5 °C 1027 hPa NW 4.8 km/h 7.4 km/h 67 % 0 mm
17:20 16.4 °C 10.5 °C 1027 hPa NW 4.5 km/h 11.1 km/h 68 % 0 mm
17:25 16.3 °C 10.3 °C 1027.3 hPa NW 5.6 km/h 7.4 km/h 68 % 0 mm
17:30 16.1 °C 10.2 °C 1027.3 hPa NW 6.6 km/h 9.3 km/h 68 % 0 mm
17:35 15.9 °C 10.1 °C 1027.3 hPa NW 6 km/h 11.1 km/h 68 % 0 mm
17:40 15.8 °C 9.9 °C 1027.7 hPa NW 5.8 km/h 8 km/h 68 % 0 mm
17:45 15.7 °C 10 °C 1027.7 hPa North 4.2 km/h 5.6 km/h 69 % 0 mm
17:50 15.6 °C 9.9 °C 1027.7 hPa NW 7.4 km/h 11.1 km/h 69 % 0 mm
17:55 15.4 °C 9.9 °C 1027.7 hPa North 6.9 km/h 9.3 km/h 70 % 0 mm
18:00 15.3 °C 9.9 °C 1027.7 hPa NW 4.8 km/h 9.7 km/h 70 % 0 mm
18:05 15.2 °C 10 °C 1027.7 hPa NW 7.7 km/h 11.1 km/h 71 % 0 mm
18:10 15.2 °C 10 °C 1027.7 hPa NW 8 km/h 11.1 km/h 71 % 0 mm
18:15 15.2 °C 10.2 °C 1028 hPa NW 8.4 km/h 12.9 km/h 72 % 0 mm
18:20 15.1 °C 10.1 °C 1028 hPa NW 8.7 km/h 13 km/h 72 % 0 mm
18:25 15.1 °C 10.1 °C 1028 hPa North 6.6 km/h 9.7 km/h 72 % 0 mm
18:30 15 °C 10 °C 1028 hPa NW 6.9 km/h 9.7 km/h 72 % 0 mm
18:35 14.9 °C 10.2 °C 1028.3 hPa North 8.4 km/h 11.1 km/h 73 % 0 mm
18:40 14.9 °C 10.1 °C 1028.3 hPa NW 6.4 km/h 7.4 km/h 73 % 0 mm
18:45 14.7 °C 9.9 °C 1028.3 hPa NW 5.5 km/h 9.3 km/h 73 % 0 mm
18:50 14.6 °C 10 °C 1028.7 hPa NW 4.5 km/h 9.3 km/h 74 % 0 mm
18:55 14.4 °C 9.9 °C 1028.7 hPa NW 3.9 km/h 7.4 km/h 74 % 0 mm
19:00 14.4 °C 10 °C 1028.7 hPa NW 4.7 km/h 7.4 km/h 75 % 0 mm
19:05 14.3 °C 9.9 °C 1028.7 hPa NW 3.5 km/h 6.4 km/h 75 % 0 mm
19:10 14.2 °C 10.1 °C 1028.7 hPa North 4 km/h 5.6 km/h 76 % 0 mm
19:15 14.2 °C 10.1 °C 1028.7 hPa NW 5.6 km/h 7.4 km/h 76 % 0 mm
19:20 14.2 °C 10.1 °C 1028.7 hPa NW 5.1 km/h 7.4 km/h 76 % 0 mm
19:25 14.1 °C 9.9 °C 1028.7 hPa NW 3.5 km/h 5.6 km/h 76 % 0 mm
19:30 14.1 °C 9.9 °C 1028.7 hPa NW 4 km/h 5.6 km/h 76 % 0 mm
19:31 14.1 °C 9.9 °C 1028.7 hPa NW 5.8 km/h 7.4 km/h 76 % 0 mm
19:36 14.2 °C 10 °C 1029 hPa NW 4.8 km/h 6.4 km/h 76 % 0 mm
19:41 14.2 °C 10 °C 1029 hPa NW 4 km/h 5.6 km/h 76 % 0 mm
19:46 14.2 °C 10 °C 1029 hPa NW 4.3 km/h 6.4 km/h 76 % 0 mm
19:51 14.2 °C 10 °C 1029 hPa NW 5.3 km/h 6.4 km/h 76 % 0 mm
19:56 14.1 °C 9.9 °C 1029 hPa North 5.3 km/h 5.6 km/h 76 % 0 mm
20:01 14.1 °C 9.9 °C 1029 hPa NW 6.8 km/h 9.3 km/h 76 % 0 mm
20:02 14.1 °C 9.9 °C 1029 hPa NW 6.1 km/h 11.1 km/h 76 % 0 mm
20:07 14.1 °C 9.9 °C 1029 hPa NW 6.6 km/h 11.1 km/h 76 % 0 mm
20:12 14 °C 9.8 °C 1029 hPa North 6.8 km/h 9.3 km/h 76 % 0 mm
20:17 13.9 °C 10 °C 1029 hPa NW 4.5 km/h 7.4 km/h 77 % 0 mm
20:22 13.9 °C 9.9 °C 1029 hPa NW 5 km/h 7.4 km/h 77 % 0 mm
20:27 13.8 °C 9.8 °C 1029 hPa NW 4.7 km/h 5.6 km/h 77 % 0 mm
20:32 13.7 °C 9.9 °C 1029 hPa North 4.3 km/h 5.6 km/h 78 % 0 mm
20:37 13.7 °C 9.9 °C 1029 hPa NW 1.9 km/h 5.6 km/h 78 % 0 mm
20:42 13.5 °C 9.7 °C 1029.3 hPa NW 4.5 km/h 6.4 km/h 78 % 0 mm
20:47 13.3 °C 9.7 °C 1029.3 hPa NW 2.6 km/h 5.6 km/h 79 % 0 mm
20:52 13.1 °C 9.5 °C 1029.3 hPa NW 4.2 km/h 5.6 km/h 79 % 0 mm
20:57 12.8 °C 9.4 °C 1029.3 hPa NW 3.5 km/h 5.6 km/h 80 % 0 mm
21:02 12.7 °C 9.6 °C 1029.3 hPa North 4.2 km/h 5.6 km/h 81 % 0 mm
21:07 12.7 °C 9.5 °C 1029.3 hPa North 2.7 km/h 3.7 km/h 81 % 0 mm
21:12 12.6 °C 9.6 °C 1029.3 hPa NW 2.3 km/h 3.7 km/h 82 % 0 mm
21:17 12.4 °C 9.6 °C 1029.3 hPa NW 3.9 km/h 5.6 km/h 83 % 0 mm
21:22 12.3 °C 9.5 °C 1029.3 hPa North 3.5 km/h 5.6 km/h 83 % 0 mm
21:27 12.2 °C 9.4 °C 1029.3 hPa NW 2.6 km/h 3.7 km/h 83 % 0 mm
21:32 12.2 °C 9.6 °C 1029.3 hPa NW 5 km/h 5.6 km/h 84 % 0 mm
21:37 12.2 °C 9.6 °C 1029.3 hPa NW 4.7 km/h 8 km/h 84 % 0 mm
21:42 12.2 °C 9.6 °C 1029.3 hPa North 3.9 km/h 5.6 km/h 84 % 0 mm
21:47 12.3 °C 9.7 °C 1029.3 hPa NW 5.5 km/h 7.4 km/h 84 % 0 mm
21:52 12.5 °C 9.9 °C 1029.3 hPa NW 3.7 km/h 5.6 km/h 84 % 0 mm
21:57 12.7 °C 9.8 °C 1029.3 hPa NW 4.3 km/h 5.6 km/h 83 % 0 mm
22:02 12.7 °C 9.8 °C 1029.3 hPa NW 3.4 km/h 5.6 km/h 83 % 0 mm
22:07 12.7 °C 9.9 °C 1029.3 hPa NW 6.6 km/h 7.4 km/h 83 % 0 mm
22:12 12.8 °C 10 °C 1029.3 hPa NW 4 km/h 5.6 km/h 83 % 0 mm
22:17 12.8 °C 9.6 °C 1029 hPa Calm     81 % 0 mm
22:22 12 °C 8.4 °C 1029 hPa NW 3.5 km/h 6.4 km/h 79 % 0 mm
22:27 11.3 °C 8.1 °C 1029 hPa North 1 km/h 1.9 km/h 81 % 0 mm
22:32 10.8 °C 7.8 °C 1029.3 hPa Calm     82 % 0 mm
22:37 10.4 °C 7.6 °C 1029.3 hPa Calm     83 % 0 mm
22:42 10.1 °C 7.7 °C 1029.3 hPa Calm     85 % 0 mm
22:47 9.9 °C 7.5 °C 1029.3 hPa Calm     85 % 0 mm
22:52 9.7 °C 7.5 °C 1029 hPa Calm     86 % 0 mm
22:57 9.6 °C 7.4 °C 1029 hPa Calm     86 % 0 mm
23:02 9.6 °C 7.5 °C 1029 hPa Calm     87 % 0 mm
23:07 9.4 °C 7.6 °C 1029 hPa Calm     88 % 0 mm
23:12 9.4 °C 7.5 °C 1029 hPa Calm   1.9 km/h 88 % 0 mm
23:17 9.1 °C 7.2 °C 1029 hPa Calm     88 % 0 mm
23:22 9.1 °C 7.3 °C 1029.3 hPa Calm     89 % 0 mm
23:27 8.9 °C 7.2 °C 1029 hPa Calm     89 % 0 mm
23:32 8.8 °C 7.3 °C 1029 hPa NW 0.6 km/h 3.7 km/h 90 % 0 mm
23:37 8.8 °C 7.2 °C 1029 hPa NW 2.1 km/h 3.7 km/h 90 % 0 mm
23:42 8.9 °C 7.5 °C 1029 hPa NW 2.4 km/h 4.8 km/h 91 % 0 mm
23:47 9.2 °C 8 °C 1029 hPa North 3.7 km/h 5.6 km/h 92 % 0 mm
23:52 9.5 °C 8.3 °C 1029 hPa NW 2.9 km/h 5.6 km/h 92 % 0 mm
23:53 9.6 °C 8.3 °C 1029 hPa NW 3.5 km/h 5.6 km/h 92 % 0 mm
23:58 9.7 °C 8.5 °C 1029 hPa NW 1.6 km/h 5.6 km/h 92 % 0 mm
Ararat Weather
Compliments of Weather Underground - 2.5 mb
Click here to send mail.


ABOUT

Live weather data from Ararat, Victoria, Australia, 3377
Data uploaded from Cumulus every 5 minutes to Weather Underground.
This site then downloads the raw data for formatting and display.
Metric and imperial data can be displayed. Graphs and historical data available.
Includes Sun and Moon times and rain image live from BOM.

Check out Ararat Weather on Facebook, Twitter and Google +

Help support ongoing costs by checking out the ads





Follow @AraratWeather